sensor_id;sensor_type;location;lat;lon;timestamp;temperature;humidity
69823;SHT31;57119;52.516;13.508;2023-05-10T00:02:01;10.90;74.33
69823;SHT31;57119;52.516;13.508;2023-05-10T00:04:26;10.75;74.78
69823;SHT31;57119;52.516;13.508;2023-05-10T00:06:53;10.70;74.97
69823;SHT31;57119;52.516;13.508;2023-05-10T00:09:18;10.61;75.19
69823;SHT31;57119;52.516;13.508;2023-05-10T00:11:43;10.61;75.32
69823;SHT31;57119;52.516;13.508;2023-05-10T00:14:09;10.61;75.22
69823;SHT31;57119;52.516;13.508;2023-05-10T00:16:34;10.49;75.69
69823;SHT31;57119;52.516;13.508;2023-05-10T00:19:00;10.49;75.87
69823;SHT31;57119;52.516;13.508;2023-05-10T00:21:25;10.44;76.00
69823;SHT31;57119;52.516;13.508;2023-05-10T00:23:50;10.42;76.05
69823;SHT31;57119;52.516;13.508;2023-05-10T00:26:16;10.29;76.24
69823;SHT31;57119;52.516;13.508;2023-05-10T00:28:41;10.36;76.08
69823;SHT31;57119;52.516;13.508;2023-05-10T00:31:07;10.28;76.59
69823;SHT31;57119;52.516;13.508;2023-05-10T00:33:32;10.28;76.71
69823;SHT31;57119;52.516;13.508;2023-05-10T00:35:57;10.12;77.29
69823;SHT31;57119;52.516;13.508;2023-05-10T00:38:23;10.19;77.31
69823;SHT31;57119;52.516;13.508;2023-05-10T00:40:48;10.22;76.78
69823;SHT31;57119;52.516;13.508;2023-05-10T00:43:14;10.17;77.07
69823;SHT31;57119;52.516;13.508;2023-05-10T00:45:40;10.22;76.97
69823;SHT31;57119;52.516;13.508;2023-05-10T00:48:06;10.23;77.01
69823;SHT31;57119;52.516;13.508;2023-05-10T00:50:32;10.20;77.25
69823;SHT31;57119;52.516;13.508;2023-05-10T00:53:02;10.13;77.38
69823;SHT31;57119;52.516;13.508;2023-05-10T00:55:27;10.13;77.45
69823;SHT31;57119;52.516;13.508;2023-05-10T00:57:53;10.08;77.48
69823;SHT31;57119;52.516;13.508;2023-05-10T01:00:19;10.08;77.75
69823;SHT31;57119;52.516;13.508;2023-05-10T01:02:45;10.03;77.94
69823;SHT31;57119;52.516;13.508;2023-05-10T01:05:11;9.96;78.16
69823;SHT31;57119;52.516;13.508;2023-05-10T01:07:37;9.95;78.35
69823;SHT31;57119;52.516;13.508;2023-05-10T01:10:02;9.86;78.55
69823;SHT31;57119;52.516;13.508;2023-05-10T01:12:27;9.85;78.81
69823;SHT31;57119;52.516;13.508;2023-05-10T01:14:53;9.79;78.97
69823;SHT31;57119;52.516;13.508;2023-05-10T01:17:19;9.70;79.29
69823;SHT31;57119;52.516;13.508;2023-05-10T01:19:46;9.65;79.46
69823;SHT31;57119;52.516;13.508;2023-05-10T01:30:35;9.67;79.62
69823;SHT31;57119;52.516;13.508;2023-05-10T01:36:08;9.67;79.91
69823;SHT31;57119;52.516;13.508;2023-05-10T01:38:48;9.61;80.11
69823;SHT31;57119;52.516;13.508;2023-05-10T01:41:44;9.51;80.30
69823;SHT31;57119;52.516;13.508;2023-05-10T01:47:46;9.44;80.57
69823;SHT31;57119;52.516;13.508;2023-05-10T01:50:18;9.40;80.84
69823;SHT31;57119;52.516;13.508;2023-05-10T01:52:49;9.34;80.90
69823;SHT31;57119;52.516;13.508;2023-05-10T01:55:18;9.33;81.04
69823;SHT31;57119;52.516;13.508;2023-05-10T01:57:44;9.38;80.97
69823;SHT31;57119;52.516;13.508;2023-05-10T02:00:12;9.29;81.20
69823;SHT31;57119;52.516;13.508;2023-05-10T02:02:44;9.24;81.47
69823;SHT31;57119;52.516;13.508;2023-05-10T02:05:12;9.33;81.21
69823;SHT31;57119;52.516;13.508;2023-05-10T02:07:38;9.23;81.48
69823;SHT31;57119;52.516;13.508;2023-05-10T02:10:05;9.20;81.63
69823;SHT31;57119;52.516;13.508;2023-05-10T02:12:35;9.09;81.87
69823;SHT31;57119;52.516;13.508;2023-05-10T02:15:02;8.98;82.33
69823;SHT31;57119;52.516;13.508;2023-05-10T02:17:30;9.05;81.96
69823;SHT31;57119;52.516;13.508;2023-05-10T02:19:58;8.88;82.53
69823;SHT31;57119;52.516;13.508;2023-05-10T02:22:26;8.98;82.38
69823;SHT31;57119;52.516;13.508;2023-05-10T02:24:53;8.95;82.40
69823;SHT31;57119;52.516;13.508;2023-05-10T02:27:19;9.05;82.17
69823;SHT31;57119;52.516;13.508;2023-05-10T02:29:46;8.93;82.36
69823;SHT31;57119;52.516;13.508;2023-05-10T02:32:12;8.90;82.38
69823;SHT31;57119;52.516;13.508;2023-05-10T02:34:39;8.78;82.74
69823;SHT31;57119;52.516;13.508;2023-05-10T02:37:05;8.76;82.84
69823;SHT31;57119;52.516;13.508;2023-05-10T02:39:31;8.72;82.86
69823;SHT31;57119;52.516;13.508;2023-05-10T02:41:58;8.61;83.37
69823;SHT31;57119;52.516;13.508;2023-05-10T02:44:26;8.58;83.28
69823;SHT31;57119;52.516;13.508;2023-05-10T02:46:53;8.60;83.27
69823;SHT31;57119;52.516;13.508;2023-05-10T02:49:21;8.76;82.77
69823;SHT31;57119;52.516;13.508;2023-05-10T02:51:51;8.75;82.48
69823;SHT31;57119;52.516;13.508;2023-05-10T02:54:24;8.88;81.96
69823;SHT31;57119;52.516;13.508;2023-05-10T02:56:57;8.92;81.85
69823;SHT31;57119;52.516;13.508;2023-05-10T02:59:24;8.89;81.68
69823;SHT31;57119;52.516;13.508;2023-05-10T03:01:49;9.00;81.64
69823;SHT31;57119;52.516;13.508;2023-05-10T03:04:15;8.82;82.00
69823;SHT31;57119;52.516;13.508;2023-05-10T03:06:41;8.83;81.76
69823;SHT31;57119;52.516;13.508;2023-05-10T03:09:07;8.86;81.80
69823;SHT31;57119;52.516;13.508;2023-05-10T03:19:45;8.71;82.18
69823;SHT31;57119;52.516;13.508;2023-05-10T03:22:18;8.60;82.68
69823;SHT31;57119;52.516;13.508;2023-05-10T03:24:47;8.51;83.06
69823;SHT31;57119;52.516;13.508;2023-05-10T03:27:14;8.52;82.90
69823;SHT31;57119;52.516;13.508;2023-05-10T03:29:40;8.58;82.79
69823;SHT31;57119;52.516;13.508;2023-05-10T03:32:06;8.62;82.63
69823;SHT31;57119;52.516;13.508;2023-05-10T03:34:32;8.55;82.92
69823;SHT31;57119;52.516;13.508;2023-05-10T03:36:57;8.52;83.00
69823;SHT31;57119;52.516;13.508;2023-05-10T03:39:22;8.54;82.94
69823;SHT31;57119;52.516;13.508;2023-05-10T03:41:48;8.61;82.34
69823;SHT31;57119;52.516;13.508;2023-05-10T03:44:13;8.62;82.67
69823;SHT31;57119;52.516;13.508;2023-05-10T03:46:38;8.64;82.80
69823;SHT31;57119;52.516;13.508;2023-05-10T03:49:04;8.57;82.79
69823;SHT31;57119;52.516;13.508;2023-05-10T03:51:29;8.57;83.26
69823;SHT31;57119;52.516;13.508;2023-05-10T03:53:56;8.48;83.17
69823;SHT31;57119;52.516;13.508;2023-05-10T03:56:21;8.54;82.89
69823;SHT31;57119;52.516;13.508;2023-05-10T03:58:47;8.51;83.18
69823;SHT31;57119;52.516;13.508;2023-05-10T04:01:12;8.65;82.49
69823;SHT31;57119;52.516;13.508;2023-05-10T04:03:38;8.78;82.10
69823;SHT31;57119;52.516;13.508;2023-05-10T04:06:03;8.82;82.18
69823;SHT31;57119;52.516;13.508;2023-05-10T04:08:29;8.83;81.94
69823;SHT31;57119;52.516;13.508;2023-05-10T04:11:04;8.86;82.14
69823;SHT31;57119;52.516;13.508;2023-05-10T04:13:29;8.92;81.99
69823;SHT31;57119;52.516;13.508;2023-05-10T04:15:54;9.00;81.53
69823;SHT31;57119;52.516;13.508;2023-05-10T04:18:20;8.99;81.60
69823;SHT31;57119;52.516;13.508;2023-05-10T04:20:45;9.02;81.55
69823;SHT31;57119;52.516;13.508;2023-05-10T04:23:10;9.15;81.21
69823;SHT31;57119;52.516;13.508;2023-05-10T04:25:36;9.15;81.16
69823;SHT31;57119;52.516;13.508;2023-05-10T04:28:01;9.20;81.10
69823;SHT31;57119;52.516;13.508;2023-05-10T04:30:26;9.31;80.70
69823;SHT31;57119;52.516;13.508;2023-05-10T04:32:54;9.41;80.62
69823;SHT31;57119;52.516;13.508;2023-05-10T04:35:19;9.47;80.46
69823;SHT31;57119;52.516;13.508;2023-05-10T04:37:44;9.51;80.76
69823;SHT31;57119;52.516;13.508;2023-05-10T04:40:10;9.58;80.07
69823;SHT31;57119;52.516;13.508;2023-05-10T04:42:36;9.67;79.95
69823;SHT31;57119;52.516;13.508;2023-05-10T04:45:01;9.81;79.21
69823;SHT31;57119;52.516;13.508;2023-05-10T04:47:26;9.88;79.32
69823;SHT31;57119;52.516;13.508;2023-05-10T04:49:52;10.02;78.79
69823;SHT31;57119;52.516;13.508;2023-05-10T04:52:17;10.12;78.29
69823;SHT31;57119;52.516;13.508;2023-05-10T04:54:43;10.23;78.03
69823;SHT31;57119;52.516;13.508;2023-05-10T04:57:08;10.39;77.64
69823;SHT31;57119;52.516;13.508;2023-05-10T04:59:35;10.46;77.50
69823;SHT31;57119;52.516;13.508;2023-05-10T05:02:01;10.53;77.24
69823;SHT31;57119;52.516;13.508;2023-05-10T05:04:27;10.73;76.72
69823;SHT31;57119;52.516;13.508;2023-05-10T05:06:52;10.81;76.41
69823;SHT31;57119;52.516;13.508;2023-05-10T05:09:18;10.97;76.33
69823;SHT31;57119;52.516;13.508;2023-05-10T05:11:43;11.08;75.61
69823;SHT31;57119;52.516;13.508;2023-05-10T05:14:08;11.18;75.49
69823;SHT31;57119;52.516;13.508;2023-05-10T05:16:34;11.26;75.03
69823;SHT31;57119;52.516;13.508;2023-05-10T05:18:59;11.38;74.97
69823;SHT31;57119;52.516;13.508;2023-05-10T05:21:25;11.52;74.10
69823;SHT31;57119;52.516;13.508;2023-05-10T05:23:51;11.63;73.94
69823;SHT31;57119;52.516;13.508;2023-05-10T05:26:17;11.74;73.67
69823;SHT31;57119;52.516;13.508;2023-05-10T05:28:42;11.84;73.39
69823;SHT31;57119;52.516;13.508;2023-05-10T05:31:08;11.95;73.13
69823;SHT31;57119;52.516;13.508;2023-05-10T05:33:34;12.01;72.83
69823;SHT31;57119;52.516;13.508;2023-05-10T05:36:03;12.16;72.80
69823;SHT31;57119;52.516;13.508;2023-05-10T05:38:29;12.25;72.31
69823;SHT31;57119;52.516;13.508;2023-05-10T05:40:55;12.35;72.15
69823;SHT31;57119;52.516;13.508;2023-05-10T05:43:20;12.42;72.05
69823;SHT31;57119;52.516;13.508;2023-05-10T05:45:46;12.42;71.47
69823;SHT31;57119;52.516;13.508;2023-05-10T05:48:11;12.63;71.38
69823;SHT31;57119;52.516;13.508;2023-05-10T05:50:36;12.70;71.29
69823;SHT31;57119;52.516;13.508;2023-05-10T05:53:02;12.82;71.24
69823;SHT31;57119;52.516;13.508;2023-05-10T05:55:27;12.89;70.64
69823;SHT31;57119;52.516;13.508;2023-05-10T05:57:53;12.96;70.60
69823;SHT31;57119;52.516;13.508;2023-05-10T06:00:18;13.08;70.43
69823;SHT31;57119;52.516;13.508;2023-05-10T06:02:44;13.25;70.46
69823;SHT31;57119;52.516;13.508;2023-05-10T06:05:09;13.34;69.65
69823;SHT31;57119;52.516;13.508;2023-05-10T06:07:35;13.42;69.86
69823;SHT31;57119;52.516;13.508;2023-05-10T06:10:00;13.52;69.56
69823;SHT31;57119;52.516;13.508;2023-05-10T06:12:26;13.66;69.58
69823;SHT31;57119;52.516;13.508;2023-05-10T06:14:51;13.72;69.36
69823;SHT31;57119;52.516;13.508;2023-05-10T06:17:16;13.83;68.88
69823;SHT31;57119;52.516;13.508;2023-05-10T06:19:42;13.95;69.21
69823;SHT31;57119;52.516;13.508;2023-05-10T06:22:07;14.03;68.33
69823;SHT31;57119;52.516;13.508;2023-05-10T06:24:33;14.21;68.44
69823;SHT31;57119;52.516;13.508;2023-05-10T06:26:58;14.29;67.89
69823;SHT31;57119;52.516;13.508;2023-05-10T06:29:25;14.36;67.81
69823;SHT31;57119;52.516;13.508;2023-05-10T06:31:50;14.50;67.53
69823;SHT31;57119;52.516;13.508;2023-05-10T06:34:15;14.52;67.33
69823;SHT31;57119;52.516;13.508;2023-05-10T06:36:41;14.64;67.25
69823;SHT31;57119;52.516;13.508;2023-05-10T06:39:06;15.00;66.62
69823;SHT31;57119;52.516;13.508;2023-05-10T06:41:32;15.27;66.47
69823;SHT31;57119;52.516;13.508;2023-05-10T06:43:57;15.35;66.07
69823;SHT31;57119;52.516;13.508;2023-05-10T06:46:23;15.29;65.86
69823;SHT31;57119;52.516;13.508;2023-05-10T06:48:48;15.43;66.11
69823;SHT31;57119;52.516;13.508;2023-05-10T06:51:14;15.67;65.93
69823;SHT31;57119;52.516;13.508;2023-05-10T06:53:39;15.74;65.45
69823;SHT31;57119;52.516;13.508;2023-05-10T06:56:04;15.70;65.28
69823;SHT31;57119;52.516;13.508;2023-05-10T06:58:30;15.58;64.65
69823;SHT31;57119;52.516;13.508;2023-05-10T07:01:01;15.49;64.67
69823;SHT31;57119;52.516;13.508;2023-05-10T07:03:27;15.94;64.50
69823;SHT31;57119;52.516;13.508;2023-05-10T07:05:52;16.46;64.30
69823;SHT31;57119;52.516;13.508;2023-05-10T07:08:17;16.23;64.49
69823;SHT31;57119;52.516;13.508;2023-05-10T07:10:43;16.23;63.84
69823;SHT31;57119;52.516;13.508;2023-05-10T07:13:08;16.56;63.56
69823;SHT31;57119;52.516;13.508;2023-05-10T07:15:34;16.73;62.89
69823;SHT31;57119;52.516;13.508;2023-05-10T07:18:00;16.64;63.25
69823;SHT31;57119;52.516;13.508;2023-05-10T07:20:25;16.45;63.47
69823;SHT31;57119;52.516;13.508;2023-05-10T07:22:51;16.64;62.43
69823;SHT31;57119;52.516;13.508;2023-05-10T07:25:16;17.17;61.94
69823;SHT31;57119;52.516;13.508;2023-05-10T07:27:41;17.69;61.59
69823;SHT31;57119;52.516;13.508;2023-05-10T07:30:07;17.50;61.51
69823;SHT31;57119;52.516;13.508;2023-05-10T07:32:33;17.10;61.77
69823;SHT31;57119;52.516;13.508;2023-05-10T07:34:58;17.48;60.88
69823;SHT31;57119;52.516;13.508;2023-05-10T07:37:24;17.12;61.51
69823;SHT31;57119;52.516;13.508;2023-05-10T07:39:49;18.14;60.09
69823;SHT31;57119;52.516;13.508;2023-05-10T07:42:14;17.61;60.47
69823;SHT31;57119;52.516;13.508;2023-05-10T07:44:40;18.33;60.06
69823;SHT31;57119;52.516;13.508;2023-05-10T07:47:05;19.41;58.27
69823;SHT31;57119;52.516;13.508;2023-05-10T07:49:30;18.52;58.50
69823;SHT31;57119;52.516;13.508;2023-05-10T07:51:56;19.27;58.62
69823;SHT31;57119;52.516;13.508;2023-05-10T07:54:21;19.23;58.11
69823;SHT31;57119;52.516;13.508;2023-05-10T07:56:47;18.52;58.63
69823;SHT31;57119;52.516;13.508;2023-05-10T07:59:16;19.16;58.45
69823;SHT31;57119;52.516;13.508;2023-05-10T08:01:43;19.00;57.29
69823;SHT31;57119;52.516;13.508;2023-05-10T08:04:08;19.72;58.13
69823;SHT31;57119;52.516;13.508;2023-05-10T08:06:34;19.96;57.03
69823;SHT31;57119;52.516;13.508;2023-05-10T08:08:59;18.77;57.89
69823;SHT31;57119;52.516;13.508;2023-05-10T08:11:25;20.33;56.60
69823;SHT31;57119;52.516;13.508;2023-05-10T08:13:52;19.85;56.12
69823;SHT31;57119;52.516;13.508;2023-05-10T08:16:18;20.84;55.68
69823;SHT31;57119;52.516;13.508;2023-05-10T08:18:44;21.47;54.24
69823;SHT31;57119;52.516;13.508;2023-05-10T08:21:13;20.85;54.31
69823;SHT31;57119;52.516;13.508;2023-05-10T08:23:38;20.91;54.64
69823;SHT31;57119;52.516;13.508;2023-05-10T08:26:04;20.39;55.35
69823;SHT31;57119;52.516;13.508;2023-05-10T08:28:29;20.47;54.99
69823;SHT31;57119;52.516;13.508;2023-05-10T08:30:55;21.42;54.51
69823;SHT31;57119;52.516;13.508;2023-05-10T08:33:20;20.91;54.24
69823;SHT31;57119;52.516;13.508;2023-05-10T08:35:46;21.25;54.04
69823;SHT31;57119;52.516;13.508;2023-05-10T08:38:11;21.33;53.73
69823;SHT31;57119;52.516;13.508;2023-05-10T08:40:40;21.96;52.83
69823;SHT31;57119;52.516;13.508;2023-05-10T08:43:08;21.64;53.59
69823;SHT31;57119;52.516;13.508;2023-05-10T08:45:39;21.73;52.86
69823;SHT31;57119;52.516;13.508;2023-05-10T08:48:09;21.49;52.97
69823;SHT31;57119;52.516;13.508;2023-05-10T08:50:36;21.63;53.64
69823;SHT31;57119;52.516;13.508;2023-05-10T08:53:05;22.31;52.76
69823;SHT31;57119;52.516;13.508;2023-05-10T08:55:32;23.06;51.86
69823;SHT31;57119;52.516;13.508;2023-05-10T08:57:59;22.62;51.83
69823;SHT31;57119;52.516;13.508;2023-05-10T09:00:25;22.77;51.94
69823;SHT31;57119;52.516;13.508;2023-05-10T09:02:51;22.95;50.67
69823;SHT31;57119;52.516;13.508;2023-05-10T09:05:17;22.46;51.38
69823;SHT31;57119;52.516;13.508;2023-05-10T09:07:43;23.25;50.79
69823;SHT31;57119;52.516;13.508;2023-05-10T09:10:09;23.38;50.50
69823;SHT31;57119;52.516;13.508;2023-05-10T09:12:35;24.30;48.92
69823;SHT31;57119;52.516;13.508;2023-05-10T09:15:01;24.50;49.36
69823;SHT31;57119;52.516;13.508;2023-05-10T09:17:27;23.35;49.81
69823;SHT31;57119;52.516;13.508;2023-05-10T09:20:01;23.30;49.91
69823;SHT31;57119;52.516;13.508;2023-05-10T09:22:28;23.78;49.49
69823;SHT31;57119;52.516;13.508;2023-05-10T09:25:09;23.76;50.09
69823;SHT31;57119;52.516;13.508;2023-05-10T09:27:35;24.00;50.54
69823;SHT31;57119;52.516;13.508;2023-05-10T09:30:01;23.64;49.92
69823;SHT31;57119;52.516;13.508;2023-05-10T09:32:44;24.31;48.53
69823;SHT31;57119;52.516;13.508;2023-05-10T09:35:11;24.31;49.36
69823;SHT31;57119;52.516;13.508;2023-05-10T09:37:42;24.81;47.90
69823;SHT31;57119;52.516;13.508;2023-05-10T09:40:12;24.95;47.78
69823;SHT31;57119;52.516;13.508;2023-05-10T09:42:38;25.19;46.87
69823;SHT31;57119;52.516;13.508;2023-05-10T09:45:04;24.12;48.38
69823;SHT31;57119;52.516;13.508;2023-05-10T09:47:33;23.43;49.16
69823;SHT31;57119;52.516;13.508;2023-05-10T09:50:00;23.16;49.52
69823;SHT31;57119;52.516;13.508;2023-05-10T09:52:52;24.17;48.62
69823;SHT31;57119;52.516;13.508;2023-05-10T09:55:19;24.37;48.26
69823;SHT31;57119;52.516;13.508;2023-05-10T09:57:46;24.53;47.10
69823;SHT31;57119;52.516;13.508;2023-05-10T10:00:17;23.92;48.61
69823;SHT31;57119;52.516;13.508;2023-05-10T10:02:45;23.71;49.23
69823;SHT31;57119;52.516;13.508;2023-05-10T10:05:11;24.65;48.43
69823;SHT31;57119;52.516;13.508;2023-05-10T10:07:37;26.49;46.53
69823;SHT31;57119;52.516;13.508;2023-05-10T10:10:02;26.15;45.44
69823;SHT31;57119;52.516;13.508;2023-05-10T10:12:30;25.50;46.20
69823;SHT31;57119;52.516;13.508;2023-05-10T10:14:56;25.64;46.16
69823;SHT31;57119;52.516;13.508;2023-05-10T10:17:25;26.52;46.24
69823;SHT31;57119;52.516;13.508;2023-05-10T10:19:52;26.69;45.32
69823;SHT31;57119;52.516;13.508;2023-05-10T10:22:18;26.21;45.86
69823;SHT31;57119;52.516;13.508;2023-05-10T10:24:44;27.75;43.19
69823;SHT31;57119;52.516;13.508;2023-05-10T10:27:21;27.15;44.92
69823;SHT31;57119;52.516;13.508;2023-05-10T10:33:09;28.16;43.43
69823;SHT31;57119;52.516;13.508;2023-05-10T10:35:38;26.93;45.04
69823;SHT31;57119;52.516;13.508;2023-05-10T10:38:04;25.35;46.57
69823;SHT31;57119;52.516;13.508;2023-05-10T10:40:33;25.36;45.83
69823;SHT31;57119;52.516;13.508;2023-05-10T10:43:25;24.94;45.69
69823;SHT31;57119;52.516;13.508;2023-05-10T10:46:13;26.46;44.56
69823;SHT31;57119;52.516;13.508;2023-05-10T10:48:49;26.49;44.34
69823;SHT31;57119;52.516;13.508;2023-05-10T10:51:16;26.75;44.93
69823;SHT31;57119;52.516;13.508;2023-05-10T10:53:42;27.08;44.27
69823;SHT31;57119;52.516;13.508;2023-05-10T10:56:12;26.00;45.51
69823;SHT31;57119;52.516;13.508;2023-05-10T10:58:40;27.33;43.66
69823;SHT31;57119;52.516;13.508;2023-05-10T11:01:18;26.39;44.24
69823;SHT31;57119;52.516;13.508;2023-05-10T11:06:30;27.95;43.75
69823;SHT31;57119;52.516;13.508;2023-05-10T11:08:57;27.38;43.79
69823;SHT31;57119;52.516;13.508;2023-05-10T11:11:22;27.27;44.01
69823;SHT31;57119;52.516;13.508;2023-05-10T11:13:48;27.68;43.67
69823;SHT31;57119;52.516;13.508;2023-05-10T11:16:23;27.04;44.81
69823;SHT31;57119;52.516;13.508;2023-05-10T11:19:01;28.48;43.41
69823;SHT31;57119;52.516;13.508;2023-05-10T11:21:31;27.96;42.44
69823;SHT31;57119;52.516;13.508;2023-05-10T11:23:58;28.81;42.50
69823;SHT31;57119;52.516;13.508;2023-05-10T11:26:31;27.78;42.93
69823;SHT31;57119;52.516;13.508;2023-05-10T11:28:57;26.78;44.94
69823;SHT31;57119;52.516;13.508;2023-05-10T11:31:27;29.56;43.21
69823;SHT31;57119;52.516;13.508;2023-05-10T11:33:55;28.52;41.89
69823;SHT31;57119;52.516;13.508;2023-05-10T11:36:24;28.88;42.02
69823;SHT31;57119;52.516;13.508;2023-05-10T11:38:51;27.79;42.71
69823;SHT31;57119;52.516;13.508;2023-05-10T11:41:18;27.20;43.47
69823;SHT31;57119;52.516;13.508;2023-05-10T11:43:46;26.99;44.75
69823;SHT31;57119;52.516;13.508;2023-05-10T11:46:14;27.97;42.28
69823;SHT31;57119;52.516;13.508;2023-05-10T11:48:40;27.14;43.68
69823;SHT31;57119;52.516;13.508;2023-05-10T11:51:09;28.16;42.26
69823;SHT31;57119;52.516;13.508;2023-05-10T11:53:35;28.44;42.84
69823;SHT31;57119;52.516;13.508;2023-05-10T11:56:08;28.67;42.27
69823;SHT31;57119;52.516;13.508;2023-05-10T11:58:34;27.14;43.96
69823;SHT31;57119;52.516;13.508;2023-05-10T12:01:00;27.42;44.46
69823;SHT31;57119;52.516;13.508;2023-05-10T12:03:27;28.96;42.01
69823;SHT31;57119;52.516;13.508;2023-05-10T12:05:53;30.15;40.60
69823;SHT31;57119;52.516;13.508;2023-05-10T12:08:24;28.68;41.44
69823;SHT31;57119;52.516;13.508;2023-05-10T12:10:49;29.08;41.01
69823;SHT31;57119;52.516;13.508;2023-05-10T12:13:15;27.72;41.79
69823;SHT31;57119;52.516;13.508;2023-05-10T12:15:41;29.39;40.00
69823;SHT31;57119;52.516;13.508;2023-05-10T12:18:14;30.09;39.61
69823;SHT31;57119;52.516;13.508;2023-05-10T12:20:40;28.20;41.55
69823;SHT31;57119;52.516;13.508;2023-05-10T12:23:08;27.01;41.71
69823;SHT31;57119;52.516;13.508;2023-05-10T12:25:35;27.83;41.64
69823;SHT31;57119;52.516;13.508;2023-05-10T12:28:03;29.23;40.45
69823;SHT31;57119;52.516;13.508;2023-05-10T12:30:32;28.65;40.33
69823;SHT31;57119;52.516;13.508;2023-05-10T12:33:11;28.20;40.27
69823;SHT31;57119;52.516;13.508;2023-05-10T12:35:48;28.41;40.80
69823;SHT31;57119;52.516;13.508;2023-05-10T12:38:35;27.49;41.10
69823;SHT31;57119;52.516;13.508;2023-05-10T12:41:04;28.94;39.63
69823;SHT31;57119;52.516;13.508;2023-05-10T12:43:31;29.19;39.19
69823;SHT31;57119;52.516;13.508;2023-05-10T12:45:57;28.18;40.61
69823;SHT31;57119;52.516;13.508;2023-05-10T12:48:22;30.62;38.79
69823;SHT31;57119;52.516;13.508;2023-05-10T12:50:48;31.58;36.39
69823;SHT31;57119;52.516;13.508;2023-05-10T12:53:14;29.34;39.11
69823;SHT31;57119;52.516;13.508;2023-05-10T12:55:43;29.88;38.78
69823;SHT31;57119;52.516;13.508;2023-05-10T12:58:08;28.40;39.25
69823;SHT31;57119;52.516;13.508;2023-05-10T13:00:34;29.45;38.13
69823;SHT31;57119;52.516;13.508;2023-05-10T13:02:59;28.96;39.00
69823;SHT31;57119;52.516;13.508;2023-05-10T13:05:26;29.78;37.70
69823;SHT31;57119;52.516;13.508;2023-05-10T13:07:51;28.92;38.92
69823;SHT31;57119;52.516;13.508;2023-05-10T13:10:17;28.91;39.00
69823;SHT31;57119;52.516;13.508;2023-05-10T13:12:42;30.64;37.52
69823;SHT31;57119;52.516;13.508;2023-05-10T13:15:08;30.46;37.43
69823;SHT31;57119;52.516;13.508;2023-05-10T13:17:33;30.52;37.47
69823;SHT31;57119;52.516;13.508;2023-05-10T13:19:59;29.64;37.78
69823;SHT31;57119;52.516;13.508;2023-05-10T13:22:24;29.92;38.32
69823;SHT31;57119;52.516;13.508;2023-05-10T13:24:50;28.82;38.67
69823;SHT31;57119;52.516;13.508;2023-05-10T13:27:15;29.05;37.80
69823;SHT31;57119;52.516;13.508;2023-05-10T13:29:41;30.14;37.14
69823;SHT31;57119;52.516;13.508;2023-05-10T13:32:06;30.26;36.32
69823;SHT31;57119;52.516;13.508;2023-05-10T13:34:31;28.83;37.12
69823;SHT31;57119;52.516;13.508;2023-05-10T13:36:57;29.54;37.35
69823;SHT31;57119;52.516;13.508;2023-05-10T13:39:22;27.00;38.56
69823;SHT31;57119;52.516;13.508;2023-05-10T13:41:48;28.52;38.67
69823;SHT31;57119;52.516;13.508;2023-05-10T13:44:14;29.88;37.04
69823;SHT31;57119;52.516;13.508;2023-05-10T13:46:40;31.89;36.96
69823;SHT31;57119;52.516;13.508;2023-05-10T13:49:06;30.28;37.97
69823;SHT31;57119;52.516;13.508;2023-05-10T13:51:33;31.68;36.52
69823;SHT31;57119;52.516;13.508;2023-05-10T13:53:59;31.45;36.99
69823;SHT31;57119;52.516;13.508;2023-05-10T13:56:24;31.10;37.89
69823;SHT31;57119;52.516;13.508;2023-05-10T13:58:49;31.11;36.59
69823;SHT31;57119;52.516;13.508;2023-05-10T14:01:15;28.67;39.77
69823;SHT31;57119;52.516;13.508;2023-05-10T14:03:40;29.80;38.35
69823;SHT31;57119;52.516;13.508;2023-05-10T14:06:06;29.97;38.20
69823;SHT31;57119;52.516;13.508;2023-05-10T14:08:32;29.87;38.30
69823;SHT31;57119;52.516;13.508;2023-05-10T14:10:58;29.42;38.74
69823;SHT31;57119;52.516;13.508;2023-05-10T14:13:23;28.50;39.21
69823;SHT31;57119;52.516;13.508;2023-05-10T14:15:50;29.12;39.39
69823;SHT31;57119;52.516;13.508;2023-05-10T14:18:15;30.06;38.33
69823;SHT31;57119;52.516;13.508;2023-05-10T14:20:40;30.04;37.67
69823;SHT31;57119;52.516;13.508;2023-05-10T14:23:06;31.31;36.30
69823;SHT31;57119;52.516;13.508;2023-05-10T14:25:31;29.03;39.00
69823;SHT31;57119;52.516;13.508;2023-05-10T14:27:58;27.73;39.75
69823;SHT31;57119;52.516;13.508;2023-05-10T14:30:23;28.30;39.88
69823;SHT31;57119;52.516;13.508;2023-05-10T14:32:49;29.66;38.24
69823;SHT31;57119;52.516;13.508;2023-05-10T14:35:14;30.19;37.54
69823;SHT31;57119;52.516;13.508;2023-05-10T14:37:40;31.61;36.07
69823;SHT31;57119;52.516;13.508;2023-05-10T14:40:06;29.19;37.53
69823;SHT31;57119;52.516;13.508;2023-05-10T14:42:31;30.05;37.62
69823;SHT31;57119;52.516;13.508;2023-05-10T14:44:57;29.15;38.67
69823;SHT31;57119;52.516;13.508;2023-05-10T14:47:22;30.36;37.80
69823;SHT31;57119;52.516;13.508;2023-05-10T14:49:47;29.77;38.45
69823;SHT31;57119;52.516;13.508;2023-05-10T14:52:13;31.11;37.48
69823;SHT31;57119;52.516;13.508;2023-05-10T14:54:39;29.88;38.79
69823;SHT31;57119;52.516;13.508;2023-05-10T14:57:05;29.05;37.77
69823;SHT31;57119;52.516;13.508;2023-05-10T14:59:31;28.69;39.65
69823;SHT31;57119;52.516;13.508;2023-05-10T15:01:56;31.89;36.53
69823;SHT31;57119;52.516;13.508;2023-05-10T15:04:22;31.17;36.71
69823;SHT31;57119;52.516;13.508;2023-05-10T15:06:47;30.64;37.05
69823;SHT31;57119;52.516;13.508;2023-05-10T15:09:13;28.58;38.39
69823;SHT31;57119;52.516;13.508;2023-05-10T15:11:38;29.05;37.72
69823;SHT31;57119;52.516;13.508;2023-05-10T15:14:03;28.69;38.34
69823;SHT31;57119;52.516;13.508;2023-05-10T15:16:29;29.42;37.73
69823;SHT31;57119;52.516;13.508;2023-05-10T15:18:54;27.39;38.37
69823;SHT31;57119;52.516;13.508;2023-05-10T15:21:20;27.56;39.94
69823;SHT31;57119;52.516;13.508;2023-05-10T15:23:45;26.56;40.71
69823;SHT31;57119;52.516;13.508;2023-05-10T15:26:11;27.01;40.97
69823;SHT31;57119;52.516;13.508;2023-05-10T15:28:36;28.30;40.06
69823;SHT31;57119;52.516;13.508;2023-05-10T15:31:02;29.15;38.51
69823;SHT31;57119;52.516;13.508;2023-05-10T15:33:28;28.39;40.00
69823;SHT31;57119;52.516;13.508;2023-05-10T15:35:53;26.90;40.15
69823;SHT31;57119;52.516;13.508;2023-05-10T15:38:19;26.11;43.09
69823;SHT31;57119;52.516;13.508;2023-05-10T15:40:45;25.43;42.13
69823;SHT31;57119;52.516;13.508;2023-05-10T15:43:10;27.51;40.08
69823;SHT31;57119;52.516;13.508;2023-05-10T15:45:35;26.49;41.38
69823;SHT31;57119;52.516;13.508;2023-05-10T15:48:01;28.02;39.99